createdAt,value
2024-02-02T00:04:09.080Z,48.60
2024-02-02T00:09:11.321Z,47.25
2024-02-02T00:14:13.567Z,50.63
2024-02-02T00:19:15.816Z,47.20
2024-02-02T00:24:18.049Z,44.17
2024-02-02T00:29:20.158Z,43.95
2024-02-02T00:34:22.521Z,45.25
2024-02-02T00:39:24.753Z,46.13
2024-02-02T00:44:27.191Z,45.05
2024-02-02T00:49:29.571Z,44.63
2024-02-02T00:54:31.969Z,44.88
2024-02-02T00:59:34.128Z,44.72
2024-02-02T01:04:36.405Z,45.70
2024-02-02T01:09:38.899Z,44.67
2024-02-02T01:14:41.264Z,48.00
2024-02-02T01:19:43.495Z,44.92
2024-02-02T01:24:45.830Z,44.53
2024-02-02T01:29:48.041Z,45.17
2024-02-02T01:34:50.366Z,46.00
2024-02-02T01:39:52.636Z,43.55
2024-02-02T01:44:54.825Z,43.22
2024-02-02T01:49:57.104Z,41.42
2024-02-02T01:54:59.351Z,41.80
2024-02-02T02:00:01.801Z,41.10
2024-02-02T02:05:04.954Z,40.35
2024-02-02T02:10:07.397Z,47.60
2024-02-02T02:15:09.818Z,41.33
2024-02-02T02:20:12.416Z,40.92
2024-02-02T02:25:14.777Z,39.78
2024-02-02T02:30:17.111Z,38.67
2024-02-02T02:35:19.359Z,42.40
2024-02-02T02:40:21.555Z,39.08
2024-02-02T02:45:23.893Z,42.17
2024-02-02T02:50:26.108Z,39.58
2024-02-02T02:55:28.351Z,41.13
2024-02-02T03:00:30.624Z,39.92
2024-02-02T03:05:32.823Z,40.13
2024-02-02T03:10:35.380Z,40.75
2024-02-02T03:15:37.655Z,38.70
2024-02-02T03:20:40.050Z,39.70
2024-02-02T03:25:42.211Z,38.30
2024-02-02T03:30:44.610Z,42.53
2024-02-02T03:35:46.792Z,39.45
2024-02-02T03:40:48.949Z,38.60
2024-02-02T03:45:51.244Z,37.70
2024-02-02T03:50:53.553Z,41.90
2024-02-02T03:55:55.721Z,40.28
2024-02-02T04:00:58.010Z,39.83
2024-02-02T04:06:01.062Z,40.80
2024-02-02T04:11:03.240Z,42.10
2024-02-02T04:16:05.690Z,45.78
2024-02-02T04:21:07.869Z,38.50
2024-02-02T04:26:10.033Z,40.40
2024-02-02T04:31:12.159Z,38.30
2024-02-02T04:36:14.358Z,37.90
2024-02-02T04:41:16.556Z,40.50
2024-02-02T04:46:18.802Z,37.58
2024-02-02T04:51:20.980Z,39.53
2024-02-02T04:56:23.138Z,34.83
2024-02-02T05:01:25.246Z,38.05
2024-02-02T05:06:27.420Z,37.90
2024-02-02T05:11:29.632Z,37.35
2024-02-02T05:16:31.760Z,39.35
2024-02-02T05:21:33.959Z,35.00
2024-02-02T05:26:36.212Z,38.55
2024-02-02T05:31:38.413Z,34.25
2024-02-02T05:36:40.632Z,35.47
2024-02-02T05:41:42.783Z,34.08
2024-02-02T05:46:44.984Z,31.65
2024-02-02T05:51:47.200Z,33.88
2024-02-02T05:56:49.567Z,33.15
2024-02-02T06:01:51.728Z,31.15
2024-02-02T06:06:54.034Z,32.72
2024-02-02T06:11:56.278Z,31.55
2024-02-02T06:16:58.438Z,31.92
2024-02-02T06:22:00.612Z,30.30
2024-02-02T06:27:02.788Z,31.13
2024-02-02T06:32:05.435Z,29.63
2024-02-02T06:37:07.589Z,31.08
2024-02-02T06:42:12.276Z,29.23
2024-02-02T06:47:14.413Z,30.02
2024-02-02T06:52:16.562Z,29.13
2024-02-02T06:57:19.037Z,28.88
2024-02-02T07:02:26.710Z,29.42
2024-02-02T07:07:28.959Z,30.65
2024-02-02T07:12:31.392Z,29.02
2024-02-02T07:17:38.197Z,26.38
2024-02-02T07:22:41.075Z,26.45
2024-02-02T07:28:01.957Z,27.77
2024-02-02T07:33:08.824Z,24.95
2024-02-02T07:38:18.723Z,25.38
2024-02-02T07:43:20.854Z,25.88
2024-02-02T07:48:23.128Z,24.15
2024-02-02T07:53:25.407Z,26.98
2024-02-02T07:58:27.649Z,26.33
2024-02-02T08:03:29.882Z,25.88
2024-02-02T08:08:33.309Z,26.77
2024-02-02T08:13:35.496Z,25.55
2024-02-02T08:18:37.997Z,27.80
2024-02-02T08:23:40.403Z,25.25
2024-02-02T08:28:48.886Z,25.48
2024-02-02T08:33:57.033Z,27.15
2024-02-02T08:38:59.247Z,26.58
2024-02-02T08:44:01.562Z,24.98
2024-02-02T08:49:04.635Z,27.38
2024-02-02T08:54:27.329Z,26.02
2024-02-02T08:59:38.430Z,24.65
2024-02-02T09:04:46.576Z,27.98
2024-02-02T09:09:48.964Z,26.35
2024-02-02T09:14:51.179Z,26.83
2024-02-02T09:19:53.689Z,29.05
2024-02-02T09:24:56.001Z,27.70
2024-02-02T09:29:58.325Z,27.77
2024-02-02T09:35:02.440Z,29.58
2024-02-02T09:40:10.397Z,27.73
2024-02-02T09:45:18.333Z,30.45
2024-02-02T09:50:32.758Z,30.92
2024-02-02T09:56:01.522Z,30.00
2024-02-02T10:01:22.353Z,30.20
2024-02-02T10:06:31.078Z,32.95
2024-02-02T10:11:56.428Z,34.47
2024-02-02T10:17:10.810Z,34.67
2024-02-02T10:22:24.761Z,33.72
2024-02-02T10:27:26.962Z,35.90
2024-02-02T10:32:41.428Z,36.45
2024-02-02T10:37:48.194Z,40.35
2024-02-02T10:42:50.532Z,35.63
2024-02-02T10:48:16.505Z,34.63
2024-02-02T10:53:29.059Z,36.95
2024-02-02T10:58:49.937Z,38.80
2024-02-02T11:04:15.276Z,36.75
2024-02-02T11:09:25.759Z,36.53
2024-02-02T11:14:33.501Z,37.97
2024-02-02T11:19:54.182Z,38.47
2024-02-02T11:25:06.144Z,39.85
2024-02-02T11:30:08.666Z,40.05
2024-02-02T11:35:15.929Z,40.03
2024-02-02T11:40:19.367Z,42.03
2024-02-02T11:45:23.192Z,40.83
2024-02-02T11:50:27.244Z,42.95
2024-02-02T11:55:34.681Z,40.78
2024-02-02T12:00:36.991Z,39.90
2024-02-02T12:05:47.303Z,40.88
2024-02-02T12:10:50.058Z,42.00
2024-02-02T12:15:52.310Z,42.35
2024-02-02T12:20:54.534Z,44.13
2024-02-02T12:25:56.694Z,41.67
2024-02-02T12:30:58.913Z,41.47
2024-02-02T12:36:07.334Z,45.78
2024-02-02T12:41:12.728Z,42.95
2024-02-02T12:46:15.030Z,42.60
2024-02-02T12:51:18.477Z,43.97
2024-02-02T13:01:23.908Z,41.40
2024-02-02T13:06:26.781Z,40.92
2024-02-02T13:11:32.265Z,44.42
2024-02-02T13:16:34.406Z,41.72
2024-02-02T13:21:37.443Z,47.40
2024-02-02T13:26:40.041Z,41.30
2024-02-02T13:31:42.417Z,40.53
2024-02-02T13:36:44.676Z,43.10
2024-02-02T13:41:47.295Z,40.75
2024-02-02T13:46:49.444Z,43.15
2024-02-02T13:51:51.631Z,44.22
2024-02-02T13:56:53.773Z,44.30
2024-02-02T14:02:05.022Z,42.85
2024-02-02T14:07:16.986Z,42.65
2024-02-02T14:12:19.483Z,46.17
2024-02-02T14:17:21.674Z,43.30
2024-02-02T14:22:26.112Z,41.75
2024-02-02T14:32:30.332Z,41.70
2024-02-02T14:37:32.560Z,44.30
2024-02-02T14:42:34.763Z,43.65
2024-02-02T14:47:37.163Z,40.47
2024-02-02T14:52:39.376Z,42.75
2024-02-02T14:57:41.606Z,42.75
2024-02-02T15:02:44.023Z,41.90
2024-02-02T15:07:46.308Z,43.28
2024-02-02T15:12:49.137Z,41.70
2024-02-02T15:17:51.551Z,43.63
2024-02-02T15:22:53.765Z,41.15
2024-02-02T15:27:55.984Z,43.30
2024-02-02T15:32:58.155Z,41.78
2024-02-02T15:38:00.327Z,42.47
2024-02-02T15:43:02.425Z,43.47
2024-02-02T15:48:04.883Z,43.78
2024-02-02T15:53:07.156Z,43.28
2024-02-02T15:58:09.426Z,41.92
2024-02-02T16:03:11.734Z,40.55
2024-02-02T16:08:13.910Z,44.88
2024-02-02T16:13:16.173Z,43.70
2024-02-02T16:18:18.452Z,44.55
2024-02-02T16:23:20.656Z,46.30
2024-02-02T16:28:22.772Z,39.92
2024-02-02T16:33:25.087Z,44.05
2024-02-02T16:38:27.330Z,44.10
2024-02-02T16:43:29.460Z,47.83
2024-02-02T16:48:31.725Z,41.65
2024-02-02T16:53:33.953Z,48.97
2024-02-02T16:58:36.147Z,46.33
2024-02-02T17:03:44.569Z,40.45
2024-02-02T17:08:46.772Z,44.47
2024-02-02T17:13:49.156Z,47.63
2024-02-02T17:18:51.391Z,46.08
2024-02-02T17:23:53.668Z,46.92
2024-02-02T17:29:00.392Z,45.22
2024-02-02T17:34:09.404Z,46.42
2024-02-02T17:39:11.807Z,45.47
2024-02-02T17:44:14.718Z,47.25
2024-02-02T17:49:17.951Z,49.70
2024-02-02T17:54:20.140Z,46.95
2024-02-02T17:59:22.258Z,47.03
2024-02-02T18:04:24.479Z,48.00
2024-02-02T18:09:26.684Z,50.10
2024-02-02T18:14:28.891Z,46.22
2024-02-02T18:19:31.175Z,47.75
2024-02-02T18:24:33.539Z,47.70
2024-02-02T18:29:35.670Z,43.20
2024-02-02T18:34:38.382Z,48.13
2024-02-02T18:39:40.749Z,43.47
2024-02-02T18:44:42.960Z,45.28
2024-02-02T18:49:45.275Z,43.63
2024-02-02T18:54:47.617Z,46.22
2024-02-02T18:59:49.777Z,49.58
2024-02-02T19:04:52.151Z,45.55
2024-02-02T19:09:54.523Z,44.13
2024-02-02T19:14:56.705Z,44.80
2024-02-02T19:19:59.027Z,47.97
2024-02-02T19:25:01.493Z,47.28
2024-02-02T19:30:03.848Z,45.67
2024-02-02T19:35:06.283Z,49.58
2024-02-02T19:40:08.808Z,47.70
2024-02-02T19:45:11.131Z,52.08
2024-02-02T19:50:13.391Z,48.33
2024-02-02T19:55:15.623Z,48.70
2024-02-02T20:00:17.920Z,48.60
2024-02-02T20:05:23.704Z,49.05
2024-02-02T20:10:27.214Z,50.00
2024-02-02T20:15:29.470Z,48.90
2024-02-02T20:20:31.659Z,49.30
2024-02-02T20:25:33.871Z,56.50
2024-02-02T20:30:36.065Z,63.20
2024-02-02T20:35:38.446Z,59.60
2024-02-02T20:40:40.755Z,57.17
2024-02-02T20:45:44.258Z,57.97
2024-02-02T20:50:46.418Z,58.58
2024-02-02T20:55:48.719Z,55.83
2024-02-02T21:00:50.967Z,56.67
2024-02-02T21:05:54.223Z,57.83
2024-02-02T21:10:57.405Z,57.88
2024-02-02T21:15:59.531Z,58.00
2024-02-02T21:21:01.805Z,59.33
2024-02-02T21:26:04.254Z,54.08
2024-02-02T21:31:06.445Z,56.20
2024-02-02T21:36:09.047Z,51.85
2024-02-02T21:41:11.269Z,52.63
2024-02-02T21:46:19.205Z,56.78
2024-02-02T21:51:21.418Z,58.65
2024-02-02T21:56:23.727Z,56.33
2024-02-02T22:01:38.607Z,51.65
2024-02-02T22:06:41.023Z,57.67
2024-02-02T22:11:43.229Z,56.92
2024-02-02T22:16:45.385Z,57.33
2024-02-02T22:21:47.592Z,55.63
2024-02-02T22:26:49.954Z,56.50
2024-02-02T22:31:52.243Z,54.83
2024-02-02T22:36:54.486Z,57.03
2024-02-02T22:41:56.800Z,54.35
2024-02-02T22:46:58.979Z,54.72
2024-02-02T22:52:01.405Z,57.88
2024-02-02T22:57:03.598Z,57.90
2024-02-02T23:02:06.899Z,53.17
2024-02-02T23:07:09.234Z,52.38
2024-02-02T23:12:11.518Z,54.35
2024-02-02T23:17:13.760Z,54.13
2024-02-02T23:22:15.934Z,52.65
2024-02-02T23:27:18.272Z,52.72
2024-02-02T23:32:20.482Z,54.28
2024-02-02T23:37:22.746Z,51.38
2024-02-02T23:42:24.971Z,54.63
2024-02-02T23:47:27.215Z,50.80
2024-02-02T23:52:29.542Z,51.90
2024-02-02T23:57:31.751Z,52.08
